sensor_id;sensor_type;location;lat;lon;timestamp;pressure;altitude;pressure_sealevel;temperature;humidity
6413;BME280;3239;48.714;9.472;2023-02-22T00:00:43;98201.91;;;4.86;100.00
6413;BME280;3239;48.714;9.472;2023-02-22T00:03:20;98203.00;;;4.68;100.00
6413;BME280;3239;48.714;9.472;2023-02-22T00:05:58;98205.25;;;4.75;100.00
6413;BME280;3239;48.714;9.472;2023-02-22T00:08:27;98204.72;;;4.66;100.00
6413;BME280;3239;48.714;9.472;2023-02-22T00:11:02;98202.94;;;4.63;100.00
6413;BME280;3239;48.714;9.472;2023-02-22T00:13:28;98206.44;;;4.69;100.00
6413;BME280;3239;48.714;9.472;2023-02-22T00:15:56;98212.63;;;4.69;100.00
6413;BME280;3239;48.714;9.472;2023-02-22T00:18:22;98201.94;;;4.60;100.00
6413;BME280;3239;48.714;9.472;2023-02-22T00:20:48;98206.44;;;4.63;100.00
6413;BME280;3239;48.714;9.472;2023-02-22T00:23:21;98195.28;;;4.61;100.00
6413;BME280;3239;48.714;9.472;2023-02-22T00:25:49;98199.59;;;4.79;100.00
6413;BME280;3239;48.714;9.472;2023-02-22T00:28:19;98196.81;;;4.68;100.00
6413;BME280;3239;48.714;9.472;2023-02-22T00:30:45;98193.59;;;4.64;100.00
6413;BME280;3239;48.714;9.472;2023-02-22T00:33:13;98196.75;;;4.57;100.00
6413;BME280;3239;48.714;9.472;2023-02-22T00:35:40;98194.72;;;4.46;100.00
6413;BME280;3239;48.714;9.472;2023-02-22T00:38:06;98202.41;;;4.53;100.00
6413;BME280;3239;48.714;9.472;2023-02-22T00:40:34;98203.56;;;4.41;100.00
6413;BME280;3239;48.714;9.472;2023-02-22T00:43:02;98204.97;;;4.37;100.00
6413;BME280;3239;48.714;9.472;2023-02-22T00:45:31;98208.69;;;4.39;100.00
6413;BME280;3239;48.714;9.472;2023-02-22T00:47:58;98209.94;;;4.38;100.00
6413;BME280;3239;48.714;9.472;2023-02-22T00:50:26;98208.13;;;4.30;100.00
6413;BME280;3239;48.714;9.472;2023-02-22T00:52:53;98216.53;;;4.32;100.00
6413;BME280;3239;48.714;9.472;2023-02-22T00:55:28;98201.91;;;4.24;100.00
6413;BME280;3239;48.714;9.472;2023-02-22T00:57:54;98194.09;;;4.31;100.00
6413;BME280;3239;48.714;9.472;2023-02-22T01:00:24;98186.91;;;4.28;100.00
6413;BME280;3239;48.714;9.472;2023-02-22T01:02:51;98191.56;;;4.22;100.00
6413;BME280;3239;48.714;9.472;2023-02-22T01:05:20;98194.47;;;4.19;100.00
6413;BME280;3239;48.714;9.472;2023-02-22T01:07:48;98198.66;;;4.14;100.00
6413;BME280;3239;48.714;9.472;2023-02-22T01:10:17;98188.31;;;4.18;100.00
6413;BME280;3239;48.714;9.472;2023-02-22T01:12:45;98193.91;;;4.09;100.00
6413;BME280;3239;48.714;9.472;2023-02-22T01:15:11;98190.19;;;4.07;100.00
6413;BME280;3239;48.714;9.472;2023-02-22T01:17:39;98190.75;;;4.16;100.00
6413;BME280;3239;48.714;9.472;2023-02-22T01:20:08;98185.78;;;4.09;100.00
6413;BME280;3239;48.714;9.472;2023-02-22T01:22:42;98187.69;;;4.03;100.00
6413;BME280;3239;48.714;9.472;2023-02-22T01:25:10;98193.91;;;3.84;100.00
6413;BME280;3239;48.714;9.472;2023-02-22T01:27:37;98194.44;;;3.88;100.00
6413;BME280;3239;48.714;9.472;2023-02-22T01:30:05;98194.44;;;3.88;100.00
6413;BME280;3239;48.714;9.472;2023-02-22T01:32:34;98186.97;;;3.77;100.00
6413;BME280;3239;48.714;9.472;2023-02-22T01:35:02;98194.06;;;3.75;100.00
6413;BME280;3239;48.714;9.472;2023-02-22T01:37:33;98198.75;;;3.74;100.00
6413;BME280;3239;48.714;9.472;2023-02-22T01:39:59;98195.88;;;3.83;100.00
6413;BME280;3239;48.714;9.472;2023-02-22T01:42:26;98194.59;;;3.79;100.00
6413;BME280;3239;48.714;9.472;2023-02-22T01:45:43;98187.34;;;3.70;100.00
6413;BME280;3239;48.714;9.472;2023-02-22T01:51:12;98192.78;;;3.70;100.00
6413;BME280;3239;48.714;9.472;2023-02-22T01:54:00;98185.56;;;3.87;100.00
6413;BME280;3239;48.714;9.472;2023-02-22T01:56:31;98175.84;;;3.75;100.00
6413;BME280;3239;48.714;9.472;2023-02-22T01:59:07;98188.25;;;3.62;100.00
6413;BME280;3239;48.714;9.472;2023-02-22T02:01:35;98184.31;;;3.63;100.00
6413;BME280;3239;48.714;9.472;2023-02-22T02:04:09;98183.09;;;3.64;100.00
6413;BME280;3239;48.714;9.472;2023-02-22T02:06:36;98186.97;;;3.57;100.00
6413;BME280;3239;48.714;9.472;2023-02-22T02:09:20;98186.44;;;3.53;100.00
6413;BME280;3239;48.714;9.472;2023-02-22T02:11:49;98186.44;;;3.53;100.00
6413;BME280;3239;48.714;9.472;2023-02-22T02:14:16;98172.53;;;3.40;100.00
6413;BME280;3239;48.714;9.472;2023-02-22T02:16:46;98176.63;;;3.56;100.00
6413;BME280;3239;48.714;9.472;2023-02-22T02:19:40;98172.25;;;3.64;100.00
6413;BME280;3239;48.714;9.472;2023-02-22T02:31:38;98167.16;;;3.46;100.00
6413;BME280;3239;48.714;9.472;2023-02-22T02:37:55;98165.94;;;3.47;100.00
6413;BME280;3239;48.714;9.472;2023-02-22T02:43:13;98166.50;;;2.91;100.00
6413;BME280;3239;48.714;9.472;2023-02-22T02:48:20;98166.22;;;3.09;100.00
6413;BME280;3239;48.714;9.472;2023-02-22T02:50:48;98162.03;;;3.08;100.00
6413;BME280;3239;48.714;9.472;2023-02-22T02:53:21;98156.22;;;3.15;100.00
6413;BME280;3239;48.714;9.472;2023-02-22T02:55:50;98150.66;;;3.24;100.00
6413;BME280;3239;48.714;9.472;2023-02-22T02:58:21;98148.28;;;3.11;100.00
6413;BME280;3239;48.714;9.472;2023-02-22T03:00:51;98147.53;;;3.11;100.00
6413;BME280;3239;48.714;9.472;2023-02-22T03:03:46;98148.16;;;3.00;100.00
6413;BME280;3239;48.714;9.472;2023-02-22T03:09:34;98134.88;;;3.02;100.00
6413;BME280;3239;48.714;9.472;2023-02-22T03:12:25;98139.91;;;3.09;100.00
6413;BME280;3239;48.714;9.472;2023-02-22T03:18:12;98143.97;;;2.99;100.00
6413;BME280;3239;48.714;9.472;2023-02-22T03:21:13;98143.22;;;2.99;100.00
6413;BME280;3239;48.714;9.472;2023-02-22T03:23:54;98137.13;;;3.04;100.00
6413;BME280;3239;48.714;9.472;2023-02-22T03:26:55;98136.78;;;2.96;100.00
6413;BME280;3239;48.714;9.472;2023-02-22T03:29:24;98136.31;;;2.78;100.00
6413;BME280;3239;48.714;9.472;2023-02-22T03:31:58;98129.97;;;2.81;100.00
6413;BME280;3239;48.714;9.472;2023-02-22T03:34:53;98128.28;;;2.83;100.00
6413;BME280;3239;48.714;9.472;2023-02-22T03:37:21;98132.66;;;2.81;100.00
6413;BME280;3239;48.714;9.472;2023-02-22T03:39:52;98128.63;;;2.91;100.00
6413;BME280;3239;48.714;9.472;2023-02-22T03:42:29;98127.31;;;2.86;100.00
6413;BME280;3239;48.714;9.472;2023-02-22T03:44:59;98123.59;;;2.84;100.00
6413;BME280;3239;48.714;9.472;2023-02-22T03:47:42;98123.13;;;2.85;100.00
6413;BME280;3239;48.714;9.472;2023-02-22T03:50:27;98125.81;;;2.85;100.00
6413;BME280;3239;48.714;9.472;2023-02-22T03:52:55;98125.56;;;2.83;100.00
6413;BME280;3239;48.714;9.472;2023-02-22T03:55:24;98123.06;;;2.80;100.00
6413;BME280;3239;48.714;9.472;2023-02-22T03:57:54;98129.50;;;2.82;100.00
6413;BME280;3239;48.714;9.472;2023-02-22T04:00:27;98128.47;;;2.80;100.00
6413;BME280;3239;48.714;9.472;2023-02-22T04:02:54;98137.31;;;2.80;100.00
6413;BME280;3239;48.714;9.472;2023-02-22T04:05:20;98129.88;;;2.75;100.00
6413;BME280;3239;48.714;9.472;2023-02-22T04:07:46;98133.91;;;2.65;100.00
6413;BME280;3239;48.714;9.472;2023-02-22T04:10:15;98135.50;;;2.72;100.00
6413;BME280;3239;48.714;9.472;2023-02-22T04:12:40;98137.72;;;2.73;100.00
6413;BME280;3239;48.714;9.472;2023-02-22T04:15:07;98136.63;;;2.65;100.00
6413;BME280;3239;48.714;9.472;2023-02-22T04:17:33;98138.59;;;2.65;100.00
6413;BME280;3239;48.714;9.472;2023-02-22T04:19:59;98138.97;;;2.58;100.00
6413;BME280;3239;48.714;9.472;2023-02-22T04:22:25;98139.72;;;2.58;100.00
6413;BME280;3239;48.714;9.472;2023-02-22T04:24:50;98137.06;;;2.44;100.00
6413;BME280;3239;48.714;9.472;2023-02-22T04:27:16;98134.38;;;2.44;100.00
6413;BME280;3239;48.714;9.472;2023-02-22T04:29:42;98128.00;;;2.47;100.00
6413;BME280;3239;48.714;9.472;2023-02-22T04:32:08;98128.22;;;2.43;100.00
6413;BME280;3239;48.714;9.472;2023-02-22T04:34:33;98135.41;;;2.32;100.00
6413;BME280;3239;48.714;9.472;2023-02-22T04:37:00;98127.78;;;2.30;100.00
6413;BME280;3239;48.714;9.472;2023-02-22T04:39:26;98136.41;;;2.34;100.00
6413;BME280;3239;48.714;9.472;2023-02-22T04:41:51;98143.44;;;2.26;100.00
6413;BME280;3239;48.714;9.472;2023-02-22T04:44:17;98127.31;;;2.17;100.00
6413;BME280;3239;48.714;9.472;2023-02-22T04:46:43;98138.44;;;2.19;100.00
6413;BME280;3239;48.714;9.472;2023-02-22T04:49:11;98138.97;;;2.23;100.00
6413;BME280;3239;48.714;9.472;2023-02-22T04:51:36;98137.47;;;2.22;100.00
6413;BME280;3239;48.714;9.472;2023-02-22T04:54:03;98138.22;;;2.23;100.00
6413;BME280;3239;48.714;9.472;2023-02-22T04:56:28;98138.97;;;2.23;100.00
6413;BME280;3239;48.714;9.472;2023-02-22T04:58:54;98133.03;;;2.19;100.00
6413;BME280;3239;48.714;9.472;2023-02-22T05:01:20;98134.31;;;2.24;100.00
6413;BME280;3239;48.714;9.472;2023-02-22T05:03:46;98130.19;;;2.28;100.00
6413;BME280;3239;48.714;9.472;2023-02-22T05:06:11;98123.97;;;2.22;100.00
6413;BME280;3239;48.714;9.472;2023-02-22T05:08:37;98126.66;;;2.22;100.00
6413;BME280;3239;48.714;9.472;2023-02-22T05:11:03;98128.44;;;2.11;100.00
6413;BME280;3239;48.714;9.472;2023-02-22T05:13:30;98127.53;;;2.14;100.00
6413;BME280;3239;48.714;9.472;2023-02-22T05:15:56;98133.94;;;2.16;100.00
6413;BME280;3239;48.714;9.472;2023-02-22T05:18:22;98140.75;;;2.26;100.00
6413;BME280;3239;48.714;9.472;2023-02-22T05:20:47;98130.88;;;2.09;100.00
6413;BME280;3239;48.714;9.472;2023-02-22T05:23:13;98133.50;;;2.03;100.00
6413;BME280;3239;48.714;9.472;2023-02-22T05:25:40;98123.22;;;2.07;100.00
6413;BME280;3239;48.714;9.472;2023-02-22T05:28:12;98126.59;;;2.02;100.00
6413;BME280;3239;48.714;9.472;2023-02-22T05:30:40;98123.44;;;1.89;100.00
6413;BME280;3239;48.714;9.472;2023-02-22T05:33:06;98125.69;;;1.76;100.00
6413;BME280;3239;48.714;9.472;2023-02-22T05:35:31;98122.69;;;1.89;100.00
6413;BME280;3239;48.714;9.472;2023-02-22T05:37:57;98125.50;;;1.94;100.00
6413;BME280;3239;48.714;9.472;2023-02-22T05:40:27;98132.28;;;2.04;100.00
6413;BME280;3239;48.714;9.472;2023-02-22T05:42:54;98132.28;;;1.90;100.00
6413;BME280;3239;48.714;9.472;2023-02-22T05:45:24;98125.31;;;1.83;100.00
6413;BME280;3239;48.714;9.472;2023-02-22T05:47:50;98126.88;;;1.90;100.00
6413;BME280;3239;48.714;9.472;2023-02-22T05:50:17;98124.84;;;1.85;100.00
6413;BME280;3239;48.714;9.472;2023-02-22T05:52:44;98133.22;;;1.87;100.00
6413;BME280;3239;48.714;9.472;2023-02-22T05:55:12;98124.19;;;1.90;100.00
6413;BME280;3239;48.714;9.472;2023-02-22T05:57:39;98125.88;;;1.87;100.00
6413;BME280;3239;48.714;9.472;2023-02-22T06:00:07;98123.19;;;1.87;100.00
6413;BME280;3239;48.714;9.472;2023-02-22T06:02:33;98121.22;;;1.88;100.00
6413;BME280;3239;48.714;9.472;2023-02-22T06:04:59;98126.97;;;1.95;100.00
6413;BME280;3239;48.714;9.472;2023-02-22T06:07:25;98125.19;;;1.92;100.00
6413;BME280;3239;48.714;9.472;2023-02-22T06:09:52;98116.91;;;1.81;100.00
6413;BME280;3239;48.714;9.472;2023-02-22T06:12:18;98122.81;;;1.80;100.00
6413;BME280;3239;48.714;9.472;2023-02-22T06:14:44;98121.22;;;1.88;100.00
6413;BME280;3239;48.714;9.472;2023-02-22T06:17:14;98123.66;;;1.86;100.00
6413;BME280;3239;48.714;9.472;2023-02-22T06:19:40;98119.91;;;1.83;100.00
6413;BME280;3239;48.714;9.472;2023-02-22T06:22:06;98125.13;;;1.87;100.00
6413;BME280;3239;48.714;9.472;2023-02-22T06:24:32;98128.75;;;1.84;100.00
6413;BME280;3239;48.714;9.472;2023-02-22T06:27:00;98127.81;;;1.87;100.00
6413;BME280;3239;48.714;9.472;2023-02-22T06:29:28;98127.63;;;1.90;100.00
6413;BME280;3239;48.714;9.472;2023-02-22T06:31:54;98131.44;;;1.84;100.00
6413;BME280;3239;48.714;9.472;2023-02-22T06:34:20;98129.13;;;1.91;100.00
6413;BME280;3239;48.714;9.472;2023-02-22T06:36:47;98124.47;;;1.92;100.00
6413;BME280;3239;48.714;9.472;2023-02-22T06:39:15;98126.59;;;2.02;100.00
6413;BME280;3239;48.714;9.472;2023-02-22T06:41:42;98129.22;;;1.97;100.00
6413;BME280;3239;48.714;9.472;2023-02-22T06:44:09;98130.59;;;1.92;100.00
6413;BME280;3239;48.714;9.472;2023-02-22T06:46:36;98133.31;;;2.07;100.00
6413;BME280;3239;48.714;9.472;2023-02-22T06:49:04;98137.47;;;2.22;100.00
6413;BME280;3239;48.714;9.472;2023-02-22T06:51:34;98132.84;;;2.23;100.00
6413;BME280;3239;48.714;9.472;2023-02-22T06:54:00;98128.41;;;2.40;100.00
6413;BME280;3239;48.714;9.472;2023-02-22T06:56:26;98134.78;;;2.57;100.00
6413;BME280;3239;48.714;9.472;2023-02-22T06:58:51;98131.72;;;2.64;100.00
6413;BME280;3239;48.714;9.472;2023-02-22T07:01:17;98133.81;;;2.74;100.00
6413;BME280;3239;48.714;9.472;2023-02-22T07:03:43;98132.00;;;2.86;100.00
6413;BME280;3239;48.714;9.472;2023-02-22T07:06:09;98115.69;;;3.00;100.00
6413;BME280;3239;48.714;9.472;2023-02-22T07:08:35;98112.38;;;2.91;100.00
6413;BME280;3239;48.714;9.472;2023-02-22T07:11:01;98109.53;;;3.00;100.00
6413;BME280;3239;48.714;9.472;2023-02-22T07:13:27;98105.13;;;2.62;100.00
6413;BME280;3239;48.714;9.472;2023-02-22T07:15:54;98101.81;;;2.93;100.00
6413;BME280;3239;48.714;9.472;2023-02-22T07:18:19;98101.97;;;3.29;100.00
6413;BME280;3239;48.714;9.472;2023-02-22T07:20:45;98097.31;;;3.30;100.00
6413;BME280;3239;48.714;9.472;2023-02-22T07:23:16;98088.25;;;3.58;100.00
6413;BME280;3239;48.714;9.472;2023-02-22T07:25:42;98084.38;;;3.65;100.00
6413;BME280;3239;48.714;9.472;2023-02-22T07:28:09;98077.34;;;3.27;100.00
6413;BME280;3239;48.714;9.472;2023-02-22T07:30:36;98082.25;;;3.49;100.00
6413;BME280;3239;48.714;9.472;2023-02-22T07:33:09;98077.41;;;3.58;100.00
6413;BME280;3239;48.714;9.472;2023-02-22T07:35:47;98069.00;;;3.82;100.00
6413;BME280;3239;48.714;9.472;2023-02-22T07:38:16;98074.00;;;4.25;100.00
6413;BME280;3239;48.714;9.472;2023-02-22T07:40:42;98065.00;;;4.50;100.00
6413;BME280;3239;48.714;9.472;2023-02-22T07:43:21;98055.69;;;4.57;100.00
6413;BME280;3239;48.714;9.472;2023-02-22T07:45:49;98061.34;;;4.53;100.00
6413;BME280;3239;48.714;9.472;2023-02-22T07:48:18;98050.41;;;4.00;100.00
6413;BME280;3239;48.714;9.472;2023-02-22T07:50:45;98055.09;;;4.36;100.00
6413;BME280;3239;48.714;9.472;2023-02-22T07:53:16;98066.44;;;4.40;100.00
6413;BME280;3239;48.714;9.472;2023-02-22T07:55:42;98063.41;;;4.75;100.00
6413;BME280;3239;48.714;9.472;2023-02-22T07:58:13;98062.19;;;4.76;100.00
6413;BME280;3239;48.714;9.472;2023-02-22T08:00:40;98063.38;;;5.44;100.00
6413;BME280;3239;48.714;9.472;2023-02-22T08:03:11;98059.53;;;4.92;100.00
6413;BME280;3239;48.714;9.472;2023-02-22T08:05:41;98064.88;;;5.51;100.00
6413;BME280;3239;48.714;9.472;2023-02-22T08:08:07;98046.09;;;6.30;100.00
6413;BME280;3239;48.714;9.472;2023-02-22T08:10:34;98030.75;;;6.27;100.00
6413;BME280;3239;48.714;9.472;2023-02-22T08:13:01;98022.34;;;6.19;100.00
6413;BME280;3239;48.714;9.472;2023-02-22T08:15:31;98021.31;;;6.44;100.00
6413;BME280;3239;48.714;9.472;2023-02-22T08:17:58;98010.81;;;6.76;100.00
6413;BME280;3239;48.714;9.472;2023-02-22T08:20:26;98001.28;;;6.42;100.00
6413;BME280;3239;48.714;9.472;2023-02-22T08:22:54;97997.56;;;6.39;100.00
6413;BME280;3239;48.714;9.472;2023-02-22T08:25:22;97999.50;;;6.61;100.00
6413;BME280;3239;48.714;9.472;2023-02-22T08:27:50;97992.25;;;6.74;100.00
6413;BME280;3239;48.714;9.472;2023-02-22T08:30:20;97988.84;;;7.44;100.00
6413;BME280;3239;48.714;9.472;2023-02-22T08:32:48;97984.19;;;7.39;100.00
6413;BME280;3239;48.714;9.472;2023-02-22T08:35:15;97979.03;;;7.94;100.00
6413;BME280;3239;48.714;9.472;2023-02-22T08:37:43;97967.16;;;7.92;100.00
6413;BME280;3239;48.714;9.472;2023-02-22T08:40:10;97957.41;;;9.81;100.00
6413;BME280;3239;48.714;9.472;2023-02-22T08:42:36;97942.38;;;9.43;100.00
6413;BME280;3239;48.714;9.472;2023-02-22T08:45:02;97939.34;;;10.04;100.00
6413;BME280;3239;48.714;9.472;2023-02-22T08:47:28;97927.00;;;11.30;100.00
6413;BME280;3239;48.714;9.472;2023-02-22T08:49:53;97931.84;;;12.34;100.00
6413;BME280;3239;48.714;9.472;2023-02-22T08:52:20;97905.72;;;10.69;100.00
6413;BME280;3239;48.714;9.472;2023-02-22T08:54:46;97918.78;;;9.27;100.00
6413;BME280;3239;48.714;9.472;2023-02-22T08:57:12;97920.69;;;9.32;100.00
6413;BME280;3239;48.714;9.472;2023-02-22T08:59:38;97915.31;;;9.71;100.00
6413;BME280;3239;48.714;9.472;2023-02-22T09:02:07;97913.53;;;10.39;100.00
6413;BME280;3239;48.714;9.472;2023-02-22T09:04:38;97918.78;;;11.30;100.00
6413;BME280;3239;48.714;9.472;2023-02-22T09:07:03;97914.91;;;10.45;100.00
6413;BME280;3239;48.714;9.472;2023-02-22T09:09:29;97904.72;;;10.20;100.00
6413;BME280;3239;48.714;9.472;2023-02-22T09:11:55;97891.34;;;10.76;100.00
6413;BME280;3239;48.714;9.472;2023-02-22T09:14:20;97891.53;;;11.52;100.00
6413;BME280;3239;48.714;9.472;2023-02-22T09:16:46;97886.25;;;10.59;100.00
6413;BME280;3239;48.714;9.472;2023-02-22T09:19:12;97895.88;;;10.40;100.00
6413;BME280;3239;48.714;9.472;2023-02-22T09:21:38;97888.91;;;10.00;100.00
6413;BME280;3239;48.714;9.472;2023-02-22T09:24:06;97892.13;;;10.63;100.00
6413;BME280;3239;48.714;9.472;2023-02-22T09:26:37;97890.97;;;10.72;100.00
6413;BME280;3239;48.714;9.472;2023-02-22T09:29:08;97893.53;;;10.90;100.00
6413;BME280;3239;48.714;9.472;2023-02-22T09:31:38;97888.34;;;11.61;100.00
6413;BME280;3239;48.714;9.472;2023-02-22T09:34:06;97891.50;;;12.72;100.00
6413;BME280;3239;48.714;9.472;2023-02-22T09:36:48;97883.91;;;12.07;100.00
6413;BME280;3239;48.714;9.472;2023-02-22T09:39:16;97885.22;;;13.07;100.00
6413;BME280;3239;48.714;9.472;2023-02-22T09:41:45;97884.31;;;13.04;100.00
6413;BME280;3239;48.714;9.472;2023-02-22T09:47:20;97884.91;;;13.33;100.00
6413;BME280;3239;48.714;9.472;2023-02-22T09:52:39;97882.50;;;11.85;100.00
6413;BME280;3239;48.714;9.472;2023-02-22T09:55:27;97884.41;;;12.76;100.00
6413;BME280;3239;48.714;9.472;2023-02-22T09:58:02;97879.97;;;14.85;100.00
6413;BME280;3239;48.714;9.472;2023-02-22T10:00:35;97881.53;;;14.09;100.00
6413;BME280;3239;48.714;9.472;2023-02-22T10:03:41;97885.09;;;13.57;100.00
6413;BME280;3239;48.714;9.472;2023-02-22T10:06:14;97872.19;;;14.12;100.00
6413;BME280;3239;48.714;9.472;2023-02-22T10:08:42;97872.94;;;13.15;100.00
6413;BME280;3239;48.714;9.472;2023-02-22T10:11:51;97875.44;;;14.33;100.00
6413;BME280;3239;48.714;9.472;2023-02-22T10:20:27;97867.84;;;13.57;100.00
6413;BME280;3239;48.714;9.472;2023-02-22T10:25:51;97855.88;;;13.77;100.00
6413;BME280;3239;48.714;9.472;2023-02-22T10:28:24;97865.06;;;13.19;100.00
6413;BME280;3239;48.714;9.472;2023-02-22T10:30:59;97867.44;;;13.15;100.00
6413;BME280;3239;48.714;9.472;2023-02-22T10:35:56;97863.44;;;13.31;100.00
6413;BME280;3239;48.714;9.472;2023-02-22T10:38:29;97860.88;;;13.26;100.00
6413;BME280;3239;48.714;9.472;2023-02-22T10:41:31;97849.25;;;14.02;100.00
6413;BME280;3239;48.714;9.472;2023-02-22T10:43:58;97843.09;;;15.96;99.84
6413;BME280;3239;48.714;9.472;2023-02-22T10:46:26;97849.03;;;14.08;100.00
6413;BME280;3239;48.714;9.472;2023-02-22T10:49:01;97852.47;;;14.38;100.00
6413;BME280;3239;48.714;9.472;2023-02-22T10:51:28;97845.63;;;15.43;100.00
6413;BME280;3239;48.714;9.472;2023-02-22T10:56:51;97847.38;;;17.82;76.71
6413;BME280;3239;48.714;9.472;2023-02-22T10:59:34;97845.38;;;17.11;69.02
6413;BME280;3239;48.714;9.472;2023-02-22T11:04:54;97839.84;;;15.73;89.61
6413;BME280;3239;48.714;9.472;2023-02-22T11:07:27;97831.56;;;15.73;84.29
6413;BME280;3239;48.714;9.472;2023-02-22T11:09:59;97818.47;;;15.73;89.35
6413;BME280;3239;48.714;9.472;2023-02-22T11:12:35;97823.34;;;15.99;92.17
6413;BME280;3239;48.714;9.472;2023-02-22T11:17:45;97826.81;;;16.68;94.84
6413;BME280;3239;48.714;9.472;2023-02-22T11:20:25;97815.28;;;15.94;89.32
6413;BME280;3239;48.714;9.472;2023-02-22T11:22:57;97809.31;;;16.05;83.02
6413;BME280;3239;48.714;9.472;2023-02-22T11:25:35;97810.44;;;17.51;74.66
6413;BME280;3239;48.714;9.472;2023-02-22T11:28:26;97805.84;;;17.01;75.00
6413;BME280;3239;48.714;9.472;2023-02-22T11:30:57;97805.25;;;17.93;69.73
6413;BME280;3239;48.714;9.472;2023-02-22T11:33:25;97798.25;;;17.01;78.15
6413;BME280;3239;48.714;9.472;2023-02-22T11:36:04;97800.81;;;17.16;76.74
6413;BME280;3239;48.714;9.472;2023-02-22T11:38:36;97789.53;;;16.69;79.35
6413;BME280;3239;48.714;9.472;2023-02-22T11:43:48;97790.06;;;16.41;88.54
6413;BME280;3239;48.714;9.472;2023-02-22T11:46:24;97795.09;;;16.78;89.18
6413;BME280;3239;48.714;9.472;2023-02-22T11:49:08;97785.38;;;17.13;83.20
6413;BME280;3239;48.714;9.472;2023-02-22T11:52:32;97774.19;;;16.85;78.40
6413;BME280;3239;48.714;9.472;2023-02-22T11:55:32;97772.44;;;16.36;81.60
6413;BME280;3239;48.714;9.472;2023-02-22T11:58:24;97770.66;;;17.20;80.12
6413;BME280;3239;48.714;9.472;2023-02-22T12:12:14;97751.69;;;19.49;57.77
6413;BME280;3239;48.714;9.472;2023-02-22T12:17:51;97750.53;;;19.21;56.49
6413;BME280;3239;48.714;9.472;2023-02-22T12:20:26;97745.38;;;19.27;55.58
6413;BME280;3239;48.714;9.472;2023-02-22T12:23:38;97741.34;;;19.40;56.57
6413;BME280;3239;48.714;9.472;2023-02-22T12:26:32;97734.59;;;20.50;49.41
6413;BME280;3239;48.714;9.472;2023-02-22T12:31:55;97741.59;;;22.64;42.84
6413;BME280;3239;48.714;9.472;2023-02-22T12:34:42;97730.09;;;23.50;39.21
6413;BME280;3239;48.714;9.472;2023-02-22T12:40:19;97724.84;;;26.00;33.37
6413;BME280;3239;48.714;9.472;2023-02-22T12:43:21;97735.31;;;26.70;32.18
6413;BME280;3239;48.714;9.472;2023-02-22T12:45:56;97716.28;;;27.85;31.01
6413;BME280;3239;48.714;9.472;2023-02-22T12:49:09;97723.88;;;27.40;31.29
6413;BME280;3239;48.714;9.472;2023-02-22T12:51:57;97720.53;;;28.08;29.60
6413;BME280;3239;48.714;9.472;2023-02-22T12:54:50;97714.22;;;28.76;27.74
6413;BME280;3239;48.714;9.472;2023-02-22T12:57:57;97716.22;;;29.71;26.89
6413;BME280;3239;48.714;9.472;2023-02-22T13:07:00;97714.25;;;26.34;30.23
6413;BME280;3239;48.714;9.472;2023-02-22T13:12:15;97707.34;;;25.69;31.28
6413;BME280;3239;48.714;9.472;2023-02-22T13:15:03;97708.63;;;24.40;34.19
6413;BME280;3239;48.714;9.472;2023-02-22T13:34:58;97700.84;;;21.84;39.64
6413;BME280;3239;48.714;9.472;2023-02-22T13:37:40;97697.69;;;23.05;37.73
6413;BME280;3239;48.714;9.472;2023-02-22T13:43:33;97704.63;;;23.44;37.23
6413;BME280;3239;48.714;9.472;2023-02-22T13:51:57;97696.47;;;25.77;33.09
6413;BME280;3239;48.714;9.472;2023-02-22T13:54:42;97692.88;;;25.41;33.10
6413;BME280;3239;48.714;9.472;2023-02-22T13:57:21;97694.78;;;25.37;32.52
6413;BME280;3239;48.714;9.472;2023-02-22T13:59:48;97688.91;;;25.97;31.96
6413;BME280;3239;48.714;9.472;2023-02-22T14:03:05;97685.16;;;26.45;30.33
6413;BME280;3239;48.714;9.472;2023-02-22T14:11:46;97690.84;;;22.67;35.13
6413;BME280;3239;48.714;9.472;2023-02-22T14:14:14;97701.38;;;22.30;36.86
6413;BME280;3239;48.714;9.472;2023-02-22T14:16:42;97699.31;;;21.21;38.66
6413;BME280;3239;48.714;9.472;2023-02-22T14:21:34;97699.16;;;19.53;43.78
6413;BME280;3239;48.714;9.472;2023-02-22T14:24:11;97690.25;;;19.87;44.84
6413;BME280;3239;48.714;9.472;2023-02-22T14:26:39;97685.47;;;20.54;43.90
6413;BME280;3239;48.714;9.472;2023-02-22T14:34:16;97694.59;;;22.22;40.00
6413;BME280;3239;48.714;9.472;2023-02-22T14:36:55;97693.75;;;22.19;39.40
6413;BME280;3239;48.714;9.472;2023-02-22T14:47:43;97690.03;;;19.10;48.89
6413;BME280;3239;48.714;9.472;2023-02-22T14:50:24;97692.91;;;18.61;51.47
6413;BME280;3239;48.714;9.472;2023-02-22T14:53:11;97693.16;;;18.15;52.39
6413;BME280;3239;48.714;9.472;2023-02-22T14:55:46;97681.38;;;17.86;55.76
6413;BME280;3239;48.714;9.472;2023-02-22T14:58:22;97692.97;;;17.09;61.15
6413;BME280;3239;48.714;9.472;2023-02-22T15:00:52;97684.75;;;17.56;59.79
6413;BME280;3239;48.714;9.472;2023-02-22T15:03:28;97688.75;;;17.08;62.45
6413;BME280;3239;48.714;9.472;2023-02-22T15:06:20;97693.09;;;16.29;72.62
6413;BME280;3239;48.714;9.472;2023-02-22T15:08:52;97693.09;;;16.56;79.15
6413;BME280;3239;48.714;9.472;2023-02-22T15:11:29;97697.59;;;16.51;84.16
6413;BME280;3239;48.714;9.472;2023-02-22T15:13:58;97694.25;;;16.53;84.95
6413;BME280;3239;48.714;9.472;2023-02-22T15:16:33;97694.38;;;16.81;83.77
6413;BME280;3239;48.714;9.472;2023-02-22T15:19:04;97696.66;;;17.30;77.03
6413;BME280;3239;48.714;9.472;2023-02-22T15:21:33;97692.44;;;18.15;71.73
6413;BME280;3239;48.714;9.472;2023-02-22T15:24:05;97693.56;;;18.40;65.09
6413;BME280;3239;48.714;9.472;2023-02-22T15:26:40;97692.00;;;18.18;68.30
6413;BME280;3239;48.714;9.472;2023-02-22T15:29:21;97689.84;;;17.69;75.07
6413;BME280;3239;48.714;9.472;2023-02-22T15:31:51;97696.16;;;17.05;82.10
6413;BME280;3239;48.714;9.472;2023-02-22T15:34:20;97694.53;;;16.57;90.33
6413;BME280;3239;48.714;9.472;2023-02-22T15:36:54;97695.88;;;16.12;100.00
6413;BME280;3239;48.714;9.472;2023-02-22T15:39:32;97694.41;;;15.85;100.00
6413;BME280;3239;48.714;9.472;2023-02-22T15:42:15;97700.09;;;15.70;100.00
6413;BME280;3239;48.714;9.472;2023-02-22T15:44:48;97688.97;;;15.43;100.00
6413;BME280;3239;48.714;9.472;2023-02-22T15:47:28;97695.91;;;15.52;100.00
6413;BME280;3239;48.714;9.472;2023-02-22T15:50:57;97692.31;;;15.42;100.00
6413;BME280;3239;48.714;9.472;2023-02-22T15:53:27;97695.97;;;15.03;100.00
6413;BME280;3239;48.714;9.472;2023-02-22T15:55:59;97695.72;;;14.67;100.00
6413;BME280;3239;48.714;9.472;2023-02-22T15:58:27;97699.59;;;14.64;100.00
6413;BME280;3239;48.714;9.472;2023-02-22T16:01:10;97698.66;;;14.69;100.00